createdAt,value
2019-03-18T00:02:14.291Z,1.80
2019-03-18T00:04:41.922Z,1.90
2019-03-18T00:07:09.566Z,1.90
2019-03-18T00:09:37.195Z,2.00
2019-03-18T00:12:05.826Z,2.00
2019-03-18T00:14:33.450Z,2.00
2019-03-18T00:17:01.095Z,2.00
2019-03-18T00:19:28.722Z,2.00
2019-03-18T00:21:58.306Z,2.00
2019-03-18T00:24:25.942Z,1.90
2019-03-18T00:26:53.576Z,1.90
2019-03-18T00:29:21.214Z,1.90
2019-03-18T00:31:48.842Z,1.90
2019-03-18T00:34:17.447Z,1.90
2019-03-18T00:36:45.069Z,1.90
2019-03-18T00:39:12.710Z,1.80
2019-03-18T00:41:40.363Z,1.80
2019-03-18T00:44:08.054Z,1.80
2019-03-18T00:46:35.682Z,1.80
2019-03-18T00:49:03.323Z,1.90
2019-03-18T00:51:30.963Z,1.80
2019-03-18T00:53:58.606Z,1.80
2019-03-18T00:56:26.394Z,1.80
2019-03-18T00:58:54.038Z,1.80
2019-03-18T01:01:21.666Z,1.80
2019-03-18T01:03:49.370Z,1.70
2019-03-18T01:06:16.998Z,1.80
2019-03-18T01:08:44.644Z,1.80
2019-03-18T01:11:12.272Z,1.80
2019-03-18T01:13:40.848Z,1.80
2019-03-18T01:16:08.474Z,1.80
2019-03-18T01:18:36.121Z,1.90
2019-03-18T01:21:03.747Z,2.00
2019-03-18T01:23:31.398Z,2.00
2019-03-18T01:25:59.033Z,2.10
2019-03-18T01:28:26.678Z,2.10
2019-03-18T01:30:54.306Z,2.20
2019-03-18T01:33:21.947Z,2.20
2019-03-18T01:35:49.582Z,2.30
2019-03-18T01:38:17.229Z,2.30
2019-03-18T01:40:44.867Z,2.20
2019-03-18T01:43:22.410Z,2.30
2019-03-18T01:45:50.045Z,2.40
2019-03-18T01:48:17.690Z,2.60
2019-03-18T01:50:45.310Z,2.60
2019-03-18T01:53:12.951Z,2.70
2019-03-18T01:55:40.586Z,2.70
2019-03-18T01:58:08.218Z,2.70
2019-03-18T02:00:35.855Z,2.70
2019-03-18T02:03:03.514Z,2.70
2019-03-18T02:05:31.129Z,2.70
2019-03-18T02:07:58.755Z,2.80
2019-03-18T02:10:26.397Z,2.90
2019-03-18T02:12:54.026Z,2.90
2019-03-18T02:15:21.667Z,2.90
2019-03-18T02:17:49.291Z,2.90
2019-03-18T02:20:19.619Z,2.90
2019-03-18T02:22:46.458Z,2.90
2019-03-18T02:25:14.175Z,2.90
2019-03-18T02:27:41.909Z,2.90
2019-03-18T02:30:10.961Z,2.90
2019-03-18T02:32:38.592Z,2.90
2019-03-18T02:35:06.402Z,2.90
2019-03-18T02:37:34.027Z,2.80
2019-03-18T02:40:01.695Z,2.80
2019-03-18T02:42:29.375Z,2.80
2019-03-18T02:44:57.011Z,2.90
2019-03-18T02:47:24.639Z,2.80
2019-03-18T02:49:52.284Z,2.90
2019-03-18T02:52:20.812Z,3.00
2019-03-18T02:54:48.465Z,3.00
2019-03-18T02:57:16.095Z,2.90
2019-03-18T02:59:43.724Z,2.90
2019-03-18T03:02:11.355Z,2.90
2019-03-18T03:04:38.996Z,2.90
2019-03-18T03:07:06.641Z,2.90
2019-03-18T03:09:34.266Z,2.80
2019-03-18T03:12:01.898Z,2.80
2019-03-18T03:14:29.543Z,2.80
2019-03-18T03:16:57.186Z,2.70
2019-03-18T03:19:24.823Z,2.70
2019-03-18T03:21:52.447Z,2.70
2019-03-18T03:24:20.088Z,2.70
2019-03-18T03:26:47.721Z,2.70
2019-03-18T03:29:15.359Z,2.60
2019-03-18T03:31:43.008Z,2.60
2019-03-18T03:34:13.795Z,2.60
2019-03-18T03:36:40.054Z,2.50
2019-03-18T03:39:07.763Z,2.40
2019-03-18T03:41:35.404Z,2.40
2019-03-18T03:44:03.106Z,2.30
2019-03-18T03:46:42.252Z,2.30
2019-03-18T03:49:00.091Z,2.20
2019-03-18T03:51:27.745Z,2.20
2019-03-18T03:53:55.445Z,2.20
2019-03-18T03:56:23.083Z,2.20
2019-03-18T03:58:50.774Z,2.10
2019-03-18T04:01:18.820Z,2.10
2019-03-18T04:03:46.516Z,2.10
2019-03-18T04:06:14.155Z,2.00
2019-03-18T04:08:41.777Z,2.00
2019-03-18T04:11:09.427Z,2.00
2019-03-18T04:13:37.058Z,1.90
2019-03-18T04:16:04.792Z,1.90
2019-03-18T04:18:32.535Z,1.80
2019-03-18T04:21:00.176Z,1.80
2019-03-18T04:23:27.810Z,1.90
2019-03-18T04:25:55.447Z,1.90
2019-03-18T04:28:23.078Z,1.80
2019-03-18T04:30:50.721Z,1.90
2019-03-18T04:33:18.339Z,1.80
2019-03-18T04:35:45.994Z,1.80
2019-03-18T04:38:13.619Z,1.80
2019-03-18T04:40:41.258Z,1.80
2019-03-18T04:43:08.893Z,1.70
2019-03-18T04:45:36.530Z,1.70
2019-03-18T04:48:04.160Z,1.60
2019-03-18T04:50:31.809Z,1.50
2019-03-18T04:52:59.434Z,1.50
2019-03-18T04:55:27.078Z,1.40
2019-03-18T04:57:54.697Z,1.40
2019-03-18T05:00:22.352Z,1.30
2019-03-18T05:02:50.991Z,1.30
2019-03-18T05:05:18.626Z,1.30
2019-03-18T05:07:46.261Z,1.30
2019-03-18T05:10:13.889Z,1.30
2019-03-18T05:12:41.518Z,1.40
2019-03-18T05:15:10.132Z,1.40
2019-03-18T05:17:37.774Z,1.40
2019-03-18T05:20:06.682Z,1.40
2019-03-18T05:22:34.311Z,1.30
2019-03-18T05:25:01.935Z,1.30
2019-03-18T05:27:29.578Z,1.30
2019-03-18T05:29:57.199Z,1.20
2019-03-18T05:32:24.847Z,1.20
2019-03-18T05:34:52.474Z,1.20
2019-03-18T05:37:20.119Z,1.30
2019-03-18T05:39:47.751Z,1.30
2019-03-18T05:42:15.390Z,1.20
2019-03-18T05:44:43.017Z,1.20
2019-03-18T05:47:10.655Z,1.20
2019-03-18T05:49:38.290Z,1.30
2019-03-18T05:52:05.936Z,1.40
2019-03-18T05:54:33.581Z,1.50
2019-03-18T05:57:01.217Z,1.70
2019-03-18T05:59:28.846Z,1.80
2019-03-18T06:01:56.490Z,1.90
2019-03-18T06:04:24.109Z,2.00
2019-03-18T06:06:51.750Z,2.00
2019-03-18T06:09:19.391Z,2.00
2019-03-18T06:11:47.039Z,2.00
2019-03-18T06:14:14.670Z,2.00
2019-03-18T06:16:42.306Z,2.10
2019-03-18T06:19:09.947Z,2.20
2019-03-18T06:21:37.599Z,2.20
2019-03-18T06:24:06.386Z,2.30
2019-03-18T06:26:34.250Z,2.40
2019-03-18T06:29:01.882Z,2.40
2019-03-18T06:31:29.528Z,2.50
2019-03-18T06:33:57.163Z,2.60
2019-03-18T06:36:24.798Z,2.60
2019-03-18T06:38:52.426Z,2.60
2019-03-18T06:41:20.066Z,2.70
2019-03-18T06:43:48.671Z,2.70
2019-03-18T06:46:16.310Z,2.70
2019-03-18T06:48:43.942Z,2.70
2019-03-18T06:51:11.583Z,2.70
2019-03-18T06:53:40.281Z,2.70
2019-03-18T06:56:08.135Z,2.70
2019-03-18T06:58:35.769Z,2.80
2019-03-18T07:01:03.413Z,2.90
2019-03-18T07:03:32.960Z,2.90
2019-03-18T07:06:00.586Z,3.00
2019-03-18T07:08:28.232Z,3.00
2019-03-18T07:10:55.858Z,3.00
2019-03-18T07:13:23.527Z,3.00
2019-03-18T07:15:51.151Z,3.00
2019-03-18T07:18:19.168Z,3.10
2019-03-18T07:20:46.931Z,3.20
2019-03-18T07:23:14.578Z,3.30
2019-03-18T07:25:42.211Z,3.30
2019-03-18T07:28:09.847Z,3.30
2019-03-18T07:30:37.508Z,3.30
2019-03-18T07:33:05.168Z,3.40
2019-03-18T07:35:32.851Z,3.50
2019-03-18T07:38:00.518Z,3.60
2019-03-18T07:40:28.142Z,3.60
2019-03-18T07:42:55.786Z,3.70
2019-03-18T07:45:23.418Z,3.70
2019-03-18T07:47:51.058Z,3.70
2019-03-18T07:50:18.702Z,3.80
2019-03-18T07:52:46.343Z,3.90
2019-03-18T07:55:13.967Z,3.80
2019-03-18T07:57:41.613Z,3.90
2019-03-18T08:00:10.790Z,3.90
2019-03-18T08:02:38.436Z,4.10
2019-03-18T08:05:06.946Z,4.10
2019-03-18T08:07:34.587Z,4.20
2019-03-18T08:10:02.215Z,4.20
2019-03-18T08:12:29.855Z,4.20
2019-03-18T08:14:57.633Z,4.30
2019-03-18T08:17:25.286Z,4.20
2019-03-18T08:19:52.914Z,4.40
2019-03-18T08:22:20.554Z,4.40
2019-03-18T08:24:48.182Z,4.50
2019-03-18T08:27:15.822Z,4.40
2019-03-18T08:29:43.459Z,4.40
2019-03-18T08:32:11.959Z,4.40
2019-03-18T08:34:39.630Z,4.40
2019-03-18T08:37:07.279Z,4.40
2019-03-18T08:39:34.903Z,4.40
2019-03-18T08:42:02.552Z,4.40
2019-03-18T08:44:30.190Z,4.30
2019-03-18T08:46:57.891Z,4.20
2019-03-18T08:49:25.518Z,4.20
2019-03-18T08:51:53.155Z,4.30
2019-03-18T08:54:20.803Z,4.40
2019-03-18T08:56:48.435Z,4.80
2019-03-18T08:59:16.080Z,5.20
2019-03-18T09:01:43.713Z,5.30
2019-03-18T09:04:11.364Z,5.60
2019-03-18T09:06:38.995Z,5.70
2019-03-18T09:09:07.120Z,5.90
2019-03-18T09:11:34.739Z,5.80
2019-03-18T09:14:02.390Z,5.80
2019-03-18T09:16:30.018Z,5.80
2019-03-18T09:19:08.100Z,5.90
2019-03-18T09:21:27.043Z,6.00
2019-03-18T09:28:49.419Z,6.40
2019-03-18T09:31:17.069Z,6.30
2019-03-18T09:33:44.859Z,6.20
2019-03-18T09:36:12.482Z,6.00
2019-03-18T09:38:40.131Z,5.90
2019-03-18T09:41:07.764Z,5.70
2019-03-18T09:43:35.410Z,5.70
2019-03-18T09:46:03.034Z,5.60
2019-03-18T09:48:30.674Z,5.80
2019-03-18T09:50:58.315Z,5.80
2019-03-18T09:53:25.950Z,5.60
2019-03-18T09:55:53.577Z,5.70
2019-03-18T09:58:21.223Z,5.70
2019-03-18T10:00:48.850Z,5.70
2019-03-18T10:03:16.499Z,5.60
2019-03-18T10:05:44.147Z,5.50
2019-03-18T10:08:11.843Z,5.50
2019-03-18T10:10:39.475Z,5.40
2019-03-18T10:13:07.119Z,5.30
2019-03-18T10:15:34.762Z,5.40
2019-03-18T10:18:02.391Z,5.30
2019-03-18T10:20:30.036Z,5.30
2019-03-18T10:22:57.816Z,5.30
2019-03-18T10:25:25.454Z,5.40
2019-03-18T10:27:53.155Z,5.40
2019-03-18T10:30:20.811Z,5.60
2019-03-18T10:32:48.457Z,5.60
2019-03-18T10:35:16.087Z,5.60
2019-03-18T10:37:43.714Z,5.70
2019-03-18T10:40:11.830Z,5.90
2019-03-18T10:42:39.460Z,5.80
2019-03-18T10:45:08.162Z,5.80
2019-03-18T10:47:35.797Z,5.30
2019-03-18T10:50:04.094Z,4.90
2019-03-18T10:52:31.728Z,4.60
2019-03-18T10:54:59.375Z,4.50
2019-03-18T10:57:26.998Z,4.70
2019-03-18T10:59:54.656Z,4.80
2019-03-18T11:02:22.282Z,4.80
2019-03-18T11:04:49.938Z,4.90
2019-03-18T11:07:17.572Z,5.00
2019-03-18T11:09:45.198Z,5.00
2019-03-18T11:12:12.843Z,5.20
2019-03-18T11:14:40.467Z,5.40
2019-03-18T11:17:08.147Z,5.60
2019-03-18T11:19:35.827Z,5.90
2019-03-18T11:22:04.366Z,6.10
2019-03-18T11:24:31.994Z,6.60
2019-03-18T11:26:59.662Z,7.10
2019-03-18T11:29:27.344Z,6.80
2019-03-18T11:31:54.983Z,6.70
2019-03-18T11:34:22.619Z,6.90
2019-03-18T11:36:50.257Z,7.20
2019-03-18T11:39:17.886Z,7.00
2019-03-18T11:41:45.529Z,6.60
2019-03-18T11:44:13.152Z,6.30
2019-03-18T11:46:40.835Z,5.90
2019-03-18T11:49:08.507Z,5.90
2019-03-18T11:51:36.151Z,5.80
2019-03-18T11:54:04.773Z,5.80
2019-03-18T11:56:32.410Z,5.90
2019-03-18T11:59:00.040Z,6.00
2019-03-18T12:01:27.691Z,6.50
2019-03-18T12:06:22.720Z,8.50
2019-03-18T12:08:50.363Z,8.50
2019-03-18T12:11:18.142Z,8.80
2019-03-18T12:13:45.779Z,8.20
2019-03-18T12:16:13.402Z,8.90
2019-03-18T12:23:35.848Z,10.10
2019-03-18T12:26:03.552Z,10.10
2019-03-18T12:28:31.187Z,9.70
2019-03-18T12:30:58.814Z,9.50
2019-03-18T12:33:26.455Z,8.70
2019-03-18T12:38:21.483Z,7.20
2019-03-18T12:40:49.183Z,7.50
2019-03-18T12:43:16.831Z,7.80
2019-03-18T12:48:11.855Z,10.40
2019-03-18T12:53:08.575Z,10.70
2019-03-18T12:55:36.206Z,9.70
2019-03-18T13:00:32.760Z,8.40
2019-03-18T13:03:02.462Z,8.20
2019-03-18T13:05:30.094Z,9.00
2019-03-18T13:07:57.746Z,10.20
2019-03-18T13:12:52.737Z,10.70
2019-03-18T13:15:20.840Z,9.60
2019-03-18T13:17:48.486Z,9.30
2019-03-18T13:22:43.563Z,8.90
2019-03-18T13:25:12.727Z,9.10
2019-03-18T13:27:40.726Z,8.40
2019-03-18T13:30:17.908Z,8.40
2019-03-18T13:32:51.504Z,8.30
2019-03-18T13:35:19.152Z,8.20
2019-03-18T13:37:46.819Z,8.00
2019-03-18T13:40:15.134Z,7.90
2019-03-18T13:42:52.910Z,7.70
2019-03-18T13:45:21.126Z,7.70
2019-03-18T13:50:19.590Z,7.40
2019-03-18T13:52:49.186Z,7.40
2019-03-18T13:55:16.829Z,7.30
2019-03-18T13:57:44.466Z,6.40
2019-03-18T14:00:13.381Z,5.90
2019-03-18T14:02:41.079Z,5.80
2019-03-18T14:05:08.892Z,5.80
2019-03-18T14:07:36.530Z,6.80
2019-03-18T14:10:05.706Z,8.90
2019-03-18T14:12:33.339Z,10.20
2019-03-18T14:15:01.008Z,12.40
2019-03-18T14:17:28.640Z,14.50
2019-03-18T14:22:35.778Z,16.00
2019-03-18T14:25:04.201Z,15.70
2019-03-18T14:27:31.837Z,14.50
2019-03-18T14:29:59.588Z,15.20
2019-03-18T14:32:29.182Z,14.20
2019-03-18T14:34:56.823Z,13.60
2019-03-18T14:37:24.467Z,13.60
2019-03-18T14:39:52.102Z,13.10
2019-03-18T14:42:19.745Z,13.20
2019-03-18T14:44:47.378Z,13.30
2019-03-18T14:49:42.382Z,12.70
2019-03-18T14:52:20.002Z,12.60
2019-03-18T14:54:47.640Z,12.70
2019-03-18T14:57:15.274Z,12.90
2019-03-18T15:02:10.293Z,11.40
2019-03-18T15:04:37.921Z,10.90
2019-03-18T15:07:05.571Z,10.30
2019-03-18T15:12:01.503Z,9.40
2019-03-18T15:14:29.152Z,9.00
2019-03-18T15:16:56.790Z,9.10
2019-03-18T15:19:24.423Z,9.20
2019-03-18T15:21:58.275Z,9.10
2019-03-18T15:24:21.422Z,7.60
2019-03-18T15:26:49.067Z,5.90
2019-03-18T15:29:16.698Z,5.40
2019-03-18T15:31:44.343Z,5.00
2019-03-18T15:34:12.910Z,5.00
2019-03-18T15:36:40.559Z,5.10
2019-03-18T15:39:08.194Z,5.40
2019-03-18T15:41:35.822Z,6.60
2019-03-18T15:46:30.839Z,7.50
2019-03-18T15:48:58.483Z,9.10
2019-03-18T15:51:26.122Z,10.80
2019-03-18T15:53:53.800Z,11.90
2019-03-18T15:56:21.493Z,11.60
2019-03-18T15:58:49.146Z,10.60
2019-03-18T16:03:44.156Z,10.00
2019-03-18T16:06:11.786Z,9.40
2019-03-18T16:08:39.434Z,9.60
2019-03-18T16:11:07.067Z,9.90
2019-03-18T16:13:34.708Z,9.50
2019-03-18T16:16:02.338Z,10.30
2019-03-18T16:18:29.986Z,10.10
2019-03-18T16:20:57.699Z,9.80
2019-03-18T16:23:25.363Z,10.00
2019-03-18T16:25:53.002Z,10.30
2019-03-18T16:28:20.630Z,9.50
2019-03-18T16:30:48.276Z,8.60
2019-03-18T16:33:15.914Z,7.60
2019-03-18T16:35:43.562Z,7.10
2019-03-18T16:38:11.192Z,6.90
2019-03-18T16:40:38.835Z,6.60
2019-03-18T16:45:33.843Z,6.00
2019-03-18T16:48:01.466Z,5.90
2019-03-18T16:50:30.645Z,5.70
2019-03-18T16:52:58.278Z,5.50
2019-03-18T16:55:25.985Z,5.40
2019-03-18T16:57:53.692Z,5.10
2019-03-18T17:00:21.903Z,5.10
2019-03-18T17:02:49.550Z,5.10
2019-03-18T17:05:17.194Z,4.90
2019-03-18T17:10:12.876Z,4.70
2019-03-18T17:12:56.302Z,4.80
2019-03-18T17:15:23.968Z,4.70
2019-03-18T17:17:51.654Z,4.70
2019-03-18T17:20:19.299Z,4.60
2019-03-18T17:22:50.182Z,4.40
2019-03-18T17:25:22.863Z,4.30
2019-03-18T17:27:50.502Z,4.30
2019-03-18T17:30:19.535Z,4.30
2019-03-18T17:32:54.955Z,4.20
2019-03-18T17:35:22.604Z,4.10
2019-03-18T17:37:51.220Z,4.00
2019-03-18T17:40:24.916Z,3.90
2019-03-18T17:42:52.551Z,3.90
2019-03-18T17:45:20.176Z,3.90
2019-03-18T17:47:50.567Z,3.90
2019-03-18T17:50:19.267Z,3.90
2019-03-18T17:53:02.248Z,3.80
2019-03-18T17:55:22.099Z,3.60
2019-03-18T17:57:51.658Z,3.60
2019-03-18T18:00:39.231Z,3.50
2019-03-18T18:03:08.778Z,3.40
2019-03-18T18:05:36.478Z,3.40
2019-03-18T18:08:04.190Z,3.40
2019-03-18T18:10:31.811Z,3.30
2019-03-18T18:13:06.911Z,3.30
2019-03-18T18:15:34.542Z,3.30
2019-03-18T18:18:02.182Z,3.20
2019-03-18T18:20:29.811Z,3.20
2019-03-18T18:22:58.375Z,3.10
2019-03-18T18:25:25.998Z,3.00
2019-03-18T18:27:53.638Z,3.00
2019-03-18T18:30:21.267Z,2.90
2019-03-18T18:32:48.939Z,2.70
2019-03-18T18:35:16.629Z,2.70
2019-03-18T18:37:44.277Z,2.80
2019-03-18T18:40:13.443Z,2.80
2019-03-18T18:42:41.090Z,2.80
2019-03-18T18:45:09.918Z,2.70
2019-03-18T18:47:37.608Z,2.40
2019-03-18T18:50:06.807Z,2.40
2019-03-18T18:52:34.450Z,2.30
2019-03-18T18:55:02.078Z,2.20
2019-03-18T18:57:29.730Z,2.20
2019-03-18T18:59:57.370Z,2.10
2019-03-18T19:02:24.986Z,2.20
2019-03-18T19:04:52.635Z,2.20
2019-03-18T19:07:20.262Z,2.30
2019-03-18T19:09:47.906Z,2.30
2019-03-18T19:12:15.615Z,2.30
2019-03-18T19:14:43.272Z,2.30
2019-03-18T19:17:10.902Z,2.30
2019-03-18T19:19:38.544Z,2.30
2019-03-18T19:22:06.179Z,2.40
2019-03-18T19:24:33.819Z,2.40
2019-03-18T19:27:01.447Z,2.40
2019-03-18T19:29:29.088Z,2.40
2019-03-18T19:31:56.716Z,2.30
2019-03-18T19:34:24.355Z,2.30
2019-03-18T19:36:51.986Z,2.20
2019-03-18T19:39:19.626Z,2.20
2019-03-18T19:41:47.274Z,2.10
2019-03-18T19:44:14.906Z,2.10
2019-03-18T19:46:42.535Z,2.10
2019-03-18T19:49:10.175Z,2.00
2019-03-18T19:51:37.803Z,2.00
2019-03-18T19:54:05.444Z,2.00
2019-03-18T19:56:33.091Z,2.00
2019-03-18T19:59:00.759Z,2.00
2019-03-18T20:01:28.375Z,2.00
2019-03-18T20:03:56.010Z,2.00
2019-03-18T20:06:23.654Z,1.90
2019-03-18T20:08:51.286Z,1.80
2019-03-18T20:11:18.940Z,1.70
2019-03-18T20:13:48.426Z,1.70
2019-03-18T20:16:16.072Z,1.60
2019-03-18T20:18:43.753Z,1.40
2019-03-18T20:21:11.446Z,1.30
2019-03-18T20:23:39.114Z,1.40
2019-03-18T20:26:06.803Z,1.30
2019-03-18T20:28:34.529Z,1.30
2019-03-18T20:33:30.462Z,1.20
2019-03-18T20:35:58.107Z,1.00
2019-03-18T20:38:25.734Z,1.00
2019-03-18T20:40:53.385Z,1.00
2019-03-18T20:43:21.061Z,1.00
2019-03-18T20:45:48.686Z,1.00
2019-03-18T20:48:16.360Z,1.00
2019-03-18T20:50:44.037Z,1.00
2019-03-18T20:53:11.706Z,1.00
2019-03-18T20:55:39.356Z,1.00
2019-03-18T20:58:07.034Z,1.00
2019-03-18T21:00:34.729Z,1.00
2019-03-18T21:03:02.392Z,1.00
2019-03-18T21:05:30.020Z,1.00
2019-03-18T21:07:57.654Z,1.00
2019-03-18T21:10:25.299Z,1.00
2019-03-18T21:12:52.990Z,1.00
2019-03-18T21:15:20.602Z,1.00
2019-03-18T21:17:48.247Z,1.00
2019-03-18T21:20:16.420Z,0.90
2019-03-18T21:22:44.050Z,0.90
2019-03-18T21:25:11.746Z,0.80
2019-03-18T21:27:39.402Z,0.80
2019-03-18T21:30:11.779Z,0.70
2019-03-18T21:32:41.439Z,0.70
2019-03-18T21:35:09.537Z,0.60
2019-03-18T21:37:37.174Z,0.60
2019-03-18T21:40:06.270Z,0.60
2019-03-18T21:42:33.982Z,0.60
2019-03-18T21:45:01.611Z,0.50
2019-03-18T21:47:29.247Z,0.40
2019-03-18T21:49:56.871Z,0.50
2019-03-18T21:52:24.509Z,0.60
2019-03-18T21:54:52.138Z,0.40
2019-03-18T21:57:19.778Z,0.30
2019-03-18T21:59:47.430Z,0.30
2019-03-18T22:02:16.018Z,0.30
2019-03-18T22:04:43.649Z,0.40
2019-03-18T22:07:11.367Z,0.40
2019-03-18T22:09:39.003Z,0.40
2019-03-18T22:12:06.642Z,0.40
2019-03-18T22:14:34.274Z,0.50
2019-03-18T22:17:01.922Z,0.40
2019-03-18T22:19:29.541Z,0.30
2019-03-18T22:21:57.202Z,0.40
2019-03-18T22:24:24.827Z,0.40
2019-03-18T22:26:52.478Z,0.40
2019-03-18T22:29:20.468Z,0.40
2019-03-18T22:31:48.095Z,0.40
2019-03-18T22:34:15.735Z,0.40
2019-03-18T22:36:43.378Z,0.40
2019-03-18T22:39:11.023Z,0.40
2019-03-18T22:41:38.651Z,0.40
2019-03-18T22:44:18.143Z,0.50
2019-03-18T22:46:45.780Z,0.60
2019-03-18T22:49:13.490Z,0.60
2019-03-18T22:51:41.122Z,0.70
2019-03-18T22:54:16.570Z,0.80
2019-03-18T22:56:44.202Z,0.80
2019-03-18T22:59:11.848Z,0.90
2019-03-18T23:01:39.471Z,0.90
2019-03-18T23:04:13.468Z,0.90
2019-03-18T23:06:41.093Z,0.90
2019-03-18T23:09:08.802Z,0.90
2019-03-18T23:11:36.427Z,0.90
2019-03-18T23:14:04.143Z,0.90
2019-03-18T23:16:31.770Z,0.80
2019-03-18T23:18:59.410Z,0.80
2019-03-18T23:21:27.043Z,0.80
2019-03-18T23:23:54.683Z,0.80
2019-03-18T23:26:22.311Z,0.70
2019-03-18T23:28:49.954Z,0.70
2019-03-18T23:31:17.583Z,0.60
2019-03-18T23:33:45.236Z,0.50
2019-03-18T23:36:12.854Z,0.30
2019-03-18T23:38:40.502Z,0.30
2019-03-18T23:41:08.130Z,0.20
2019-03-18T23:43:35.778Z,0.20
2019-03-18T23:46:03.416Z,0.20
2019-03-18T23:48:31.058Z,0.30
2019-03-18T23:50:58.767Z,0.30
2019-03-18T23:53:33.430Z,0.20
2019-03-18T23:56:01.065Z,0.20
2019-03-18T23:58:28.691Z,0.10
